sensor_id;sensor_type;location;lat;lon;timestamp;pressure;altitude;pressure_sealevel;temperature;humidity
76122;BME280;70471;53.200;6.080;2023-06-26T00:01:47;101174.06;;;26.39;41.69
76122;BME280;70471;53.200;6.080;2023-06-26T00:06:40;101145.81;;;26.31;41.52
76122;BME280;70471;53.200;6.080;2023-06-26T00:11:33;101157.16;;;26.35;41.89
76122;BME280;70471;53.200;6.080;2023-06-26T00:16:25;101151.25;;;26.37;41.56
76122;BME280;70471;53.200;6.080;2023-06-26T00:21:17;101149.13;;;26.34;41.45
76122;BME280;70471;53.200;6.080;2023-06-26T00:26:10;101141.88;;;26.33;41.94
76122;BME280;70471;53.200;6.080;2023-06-26T00:31:02;101135.50;;;26.32;41.90
76122;BME280;70471;53.200;6.080;2023-06-26T00:35:53;101134.66;;;26.31;41.40
76122;BME280;70471;53.200;6.080;2023-06-26T00:40:45;101123.47;;;26.31;41.52
76122;BME280;70471;53.200;6.080;2023-06-26T00:45:37;101117.41;;;26.29;41.47
76122;BME280;70471;53.200;6.080;2023-06-26T00:50:29;101100.84;;;26.24;41.66
76122;BME280;70471;53.200;6.080;2023-06-26T00:55:22;101103.28;;;26.26;41.99
76122;BME280;70471;53.200;6.080;2023-06-26T01:00:15;101101.66;;;26.25;41.81
76122;BME280;70471;53.200;6.080;2023-06-26T01:05:10;101100.34;;;26.22;41.56
76122;BME280;70471;53.200;6.080;2023-06-26T01:10:03;101082.16;;;26.16;41.83
76122;BME280;70471;53.200;6.080;2023-06-26T01:14:56;101092.31;;;26.21;41.71
76122;BME280;70471;53.200;6.080;2023-06-26T01:19:47;101080.31;;;26.20;41.70
76122;BME280;70471;53.200;6.080;2023-06-26T01:24:53;101081.50;;;26.19;42.33
76122;BME280;70471;53.200;6.080;2023-06-26T01:29:51;101074.47;;;26.13;41.75
76122;BME280;70471;53.200;6.080;2023-06-26T01:34:45;101067.69;;;26.14;41.86
76122;BME280;70471;53.200;6.080;2023-06-26T01:39:37;101072.81;;;26.12;42.15
76122;BME280;70471;53.200;6.080;2023-06-26T01:44:30;101077.94;;;26.10;42.48
76122;BME280;70471;53.200;6.080;2023-06-26T01:49:29;101081.41;;;26.07;42.03
76122;BME280;70471;53.200;6.080;2023-06-26T01:54:23;101083.22;;;26.03;42.14
76122;BME280;70471;53.200;6.080;2023-06-26T01:59:18;101071.91;;;25.99;42.73
76122;BME280;70471;53.200;6.080;2023-06-26T02:04:11;101063.88;;;25.98;42.85
76122;BME280;70471;53.200;6.080;2023-06-26T02:09:04;101075.03;;;25.98;42.82
76122;BME280;70471;53.200;6.080;2023-06-26T02:13:56;101049.34;;;25.83;42.96
76122;BME280;70471;53.200;6.080;2023-06-26T02:18:48;101073.13;;;25.89;43.15
76122;BME280;70471;53.200;6.080;2023-06-26T02:23:41;101071.94;;;25.90;42.98
76122;BME280;70471;53.200;6.080;2023-06-26T02:28:34;101066.69;;;25.89;43.46
76122;BME280;70471;53.200;6.080;2023-06-26T02:33:26;101076.25;;;25.88;43.11
76122;BME280;70471;53.200;6.080;2023-06-26T02:38:18;101058.25;;;25.76;43.47
76122;BME280;70471;53.200;6.080;2023-06-26T02:43:11;101065.78;;;25.76;43.55
76122;BME280;70471;53.200;6.080;2023-06-26T02:48:05;101083.97;;;25.82;43.55
76122;BME280;70471;53.200;6.080;2023-06-26T02:52:57;101080.72;;;25.80;43.93
76122;BME280;70471;53.200;6.080;2023-06-26T02:57:49;101087.63;;;25.74;43.69
76122;BME280;70471;53.200;6.080;2023-06-26T03:02:41;101082.25;;;25.69;44.61
76122;BME280;70471;53.200;6.080;2023-06-26T03:07:35;101086.66;;;25.70;44.56
76122;BME280;70471;53.200;6.080;2023-06-26T03:12:27;101080.56;;;25.68;44.50
76122;BME280;70471;53.200;6.080;2023-06-26T03:17:19;101076.97;;;25.67;44.38
76122;BME280;70471;53.200;6.080;2023-06-26T03:22:12;101069.59;;;25.63;44.63
76122;BME280;70471;53.200;6.080;2023-06-26T03:27:06;101085.66;;;25.66;44.61
76122;BME280;70471;53.200;6.080;2023-06-26T03:32:00;101089.81;;;25.51;45.58
76122;BME280;70471;53.200;6.080;2023-06-26T03:36:53;101068.53;;;25.46;46.47
76122;BME280;70471;53.200;6.080;2023-06-26T03:41:45;101095.91;;;25.44;46.41
76122;BME280;70471;53.200;6.080;2023-06-26T03:46:39;101103.47;;;25.35;47.30
76122;BME280;70471;53.200;6.080;2023-06-26T03:51:32;101104.34;;;25.09;47.70
76122;BME280;70471;53.200;6.080;2023-06-26T03:56:24;101102.38;;;24.92;47.58
76122;BME280;70471;53.200;6.080;2023-06-26T04:01:16;101114.66;;;24.82;48.42
76122;BME280;70471;53.200;6.080;2023-06-26T04:06:12;101107.63;;;24.50;49.49
76122;BME280;70471;53.200;6.080;2023-06-26T04:11:05;101127.44;;;24.48;49.22
76122;BME280;70471;53.200;6.080;2023-06-26T04:15:57;101108.59;;;24.54;49.04
76122;BME280;70471;53.200;6.080;2023-06-26T04:21:06;101119.50;;;24.33;49.99
76122;BME280;70471;53.200;6.080;2023-06-26T04:26:00;101139.44;;;24.18;50.40
76122;BME280;70471;53.200;6.080;2023-06-26T04:30:55;101146.03;;;24.22;50.84
76122;BME280;70471;53.200;6.080;2023-06-26T04:35:46;101151.06;;;24.11;50.88
76122;BME280;70471;53.200;6.080;2023-06-26T04:40:39;101136.91;;;23.98;51.91
76122;BME280;70471;53.200;6.080;2023-06-26T04:45:33;101160.97;;;23.63;52.67
76122;BME280;70471;53.200;6.080;2023-06-26T04:50:25;101180.06;;;23.56;52.68
76122;BME280;70471;53.200;6.080;2023-06-26T04:55:19;101207.63;;;23.43;52.95
76122;BME280;70471;53.200;6.080;2023-06-26T05:00:12;101241.75;;;23.35;53.29
76122;BME280;70471;53.200;6.080;2023-06-26T05:05:07;101207.59;;;23.21;53.72
76122;BME280;70471;53.200;6.080;2023-06-26T05:09:59;101199.31;;;23.07;53.91
76122;BME280;70471;53.200;6.080;2023-06-26T05:14:50;101199.09;;;23.03;53.74
76122;BME280;70471;53.200;6.080;2023-06-26T05:19:41;101208.00;;;23.14;53.41
76122;BME280;70471;53.200;6.080;2023-06-26T05:24:35;101219.44;;;23.27;52.89
76122;BME280;70471;53.200;6.080;2023-06-26T05:29:28;101222.81;;;23.37;52.39
76122;BME280;70471;53.200;6.080;2023-06-26T05:34:22;101240.47;;;23.41;52.15
76122;BME280;70471;53.200;6.080;2023-06-26T05:39:15;101241.56;;;23.32;51.89
76122;BME280;70471;53.200;6.080;2023-06-26T05:44:09;101250.72;;;23.32;52.06
76122;BME280;70471;53.200;6.080;2023-06-26T05:49:01;101259.44;;;23.39;51.59
76122;BME280;70471;53.200;6.080;2023-06-26T05:53:53;101264.88;;;23.44;51.59
76122;BME280;70471;53.200;6.080;2023-06-26T05:58:45;101265.72;;;23.45;51.56
76122;BME280;70471;53.200;6.080;2023-06-26T06:03:38;101265.41;;;23.47;51.24
76122;BME280;70471;53.200;6.080;2023-06-26T06:08:30;101277.53;;;23.51;51.16
76122;BME280;70471;53.200;6.080;2023-06-26T06:13:21;101289.91;;;23.44;51.10
76122;BME280;70471;53.200;6.080;2023-06-26T06:18:13;101297.25;;;23.40;51.30
76122;BME280;70471;53.200;6.080;2023-06-26T06:23:07;101293.25;;;23.33;51.43
76122;BME280;70471;53.200;6.080;2023-06-26T06:27:59;101316.31;;;23.33;51.11
76122;BME280;70471;53.200;6.080;2023-06-26T06:32:50;101322.53;;;23.02;50.33
76122;BME280;70471;53.200;6.080;2023-06-26T06:37:42;101338.19;;;22.70;50.91
76122;BME280;70471;53.200;6.080;2023-06-26T06:42:36;101352.19;;;22.32;50.47
76122;BME280;70471;53.200;6.080;2023-06-26T06:47:29;101367.06;;;22.23;51.42
76122;BME280;70471;53.200;6.080;2023-06-26T06:52:21;101376.31;;;22.18;51.35
76122;BME280;70471;53.200;6.080;2023-06-26T06:57:13;101378.88;;;21.95;51.21
76122;BME280;70471;53.200;6.080;2023-06-26T07:02:06;101376.34;;;21.80;51.59
76122;BME280;70471;53.200;6.080;2023-06-26T07:06:59;101391.78;;;21.86;51.54
76122;BME280;70471;53.200;6.080;2023-06-26T07:11:52;101397.81;;;21.69;51.76
76122;BME280;70471;53.200;6.080;2023-06-26T07:16:44;101397.16;;;21.58;52.55
76122;BME280;70471;53.200;6.080;2023-06-26T07:21:37;101394.22;;;21.50;51.95
76122;BME280;70471;53.200;6.080;2023-06-26T07:26:30;101422.50;;;21.71;51.96
76122;BME280;70471;53.200;6.080;2023-06-26T07:31:22;101423.81;;;21.54;51.42
76122;BME280;70471;53.200;6.080;2023-06-26T07:36:13;101425.53;;;21.50;52.76
76122;BME280;70471;53.200;6.080;2023-06-26T07:41:06;101439.81;;;21.38;52.15
76122;BME280;70471;53.200;6.080;2023-06-26T07:45:58;101452.75;;;21.24;52.83
76122;BME280;70471;53.200;6.080;2023-06-26T07:50:50;101446.44;;;21.18;52.58
76122;BME280;70471;53.200;6.080;2023-06-26T07:55:44;101455.94;;;21.12;52.37
76122;BME280;70471;53.200;6.080;2023-06-26T08:00:38;101448.34;;;20.94;52.55
76122;BME280;70471;53.200;6.080;2023-06-26T08:05:31;101471.25;;;20.70;54.05
76122;BME280;70471;53.200;6.080;2023-06-26T08:10:24;101470.22;;;20.61;53.76
76122;BME280;70471;53.200;6.080;2023-06-26T08:15:16;101459.25;;;20.50;53.47
76122;BME280;70471;53.200;6.080;2023-06-26T08:20:11;101477.53;;;20.51;54.24
76122;BME280;70471;53.200;6.080;2023-06-26T08:25:03;101483.09;;;20.46;54.53
76122;BME280;70471;53.200;6.080;2023-06-26T08:29:55;101485.00;;;20.51;55.16
76122;BME280;70471;53.200;6.080;2023-06-26T08:34:47;101504.03;;;20.63;54.04
76122;BME280;70471;53.200;6.080;2023-06-26T08:39:42;101504.88;;;20.92;52.94
76122;BME280;70471;53.200;6.080;2023-06-26T08:44:34;101501.28;;;21.21;52.88
76122;BME280;70471;53.200;6.080;2023-06-26T08:49:34;101495.53;;;21.37;52.00
76122;BME280;70471;53.200;6.080;2023-06-26T08:54:34;101503.09;;;21.55;51.69
76122;BME280;70471;53.200;6.080;2023-06-26T08:59:31;101511.03;;;21.67;51.72
76122;BME280;70471;53.200;6.080;2023-06-26T09:04:25;101521.03;;;21.87;51.40
76122;BME280;70471;53.200;6.080;2023-06-26T09:09:17;101518.16;;;21.97;50.90
76122;BME280;70471;53.200;6.080;2023-06-26T09:14:09;101533.16;;;22.15;50.68
76122;BME280;70471;53.200;6.080;2023-06-26T09:19:04;101528.78;;;22.28;50.33
76122;BME280;70471;53.200;6.080;2023-06-26T09:24:01;101542.53;;;22.39;50.15
76122;BME280;70471;53.200;6.080;2023-06-26T09:28:54;101557.16;;;22.44;50.10
76122;BME280;70471;53.200;6.080;2023-06-26T09:33:47;101556.44;;;22.58;49.87
76122;BME280;70471;53.200;6.080;2023-06-26T09:38:42;101562.63;;;22.68;49.63
76122;BME280;70471;53.200;6.080;2023-06-26T09:43:45;101563.59;;;22.78;49.46
76122;BME280;70471;53.200;6.080;2023-06-26T09:48:37;101564.88;;;22.85;49.38
76122;BME280;70471;53.200;6.080;2023-06-26T09:53:30;101571.19;;;22.91;49.28
76122;BME280;70471;53.200;6.080;2023-06-26T09:58:26;101592.19;;;22.97;49.14
76122;BME280;70471;53.200;6.080;2023-06-26T10:03:20;101560.56;;;22.93;48.96
76122;BME280;70471;53.200;6.080;2023-06-26T10:08:13;101590.59;;;23.10;48.71
76122;BME280;70471;53.200;6.080;2023-06-26T10:13:16;101595.19;;;23.20;48.10
76122;BME280;70471;53.200;6.080;2023-06-26T10:18:13;101592.09;;;23.21;47.62
76122;BME280;70471;53.200;6.080;2023-06-26T10:23:07;101600.13;;;23.23;47.13
76122;BME280;70471;53.200;6.080;2023-06-26T10:28:01;101605.47;;;23.19;46.84
76122;BME280;70471;53.200;6.080;2023-06-26T10:32:55;101604.06;;;23.36;46.51
76122;BME280;70471;53.200;6.080;2023-06-26T10:37:51;101616.13;;;23.45;46.71
76122;BME280;70471;53.200;6.080;2023-06-26T10:42:44;101621.41;;;23.47;46.65
76122;BME280;70471;53.200;6.080;2023-06-26T10:47:37;101638.19;;;23.55;46.84
76122;BME280;70471;53.200;6.080;2023-06-26T10:52:30;101645.31;;;23.61;46.87
76122;BME280;70471;53.200;6.080;2023-06-26T10:57:29;101644.69;;;23.65;46.68
76122;BME280;70471;53.200;6.080;2023-06-26T11:02:25;101631.28;;;23.67;46.53
76122;BME280;70471;53.200;6.080;2023-06-26T11:07:19;101647.38;;;23.70;46.53
76122;BME280;70471;53.200;6.080;2023-06-26T11:12:12;101667.09;;;23.73;46.74
76122;BME280;70471;53.200;6.080;2023-06-26T11:17:07;101668.09;;;23.77;46.56
76122;BME280;70471;53.200;6.080;2023-06-26T11:22:02;101673.53;;;23.88;46.39
76122;BME280;70471;53.200;6.080;2023-06-26T11:26:55;101669.28;;;23.90;46.33
76122;BME280;70471;53.200;6.080;2023-06-26T11:31:59;101670.81;;;23.96;46.30
76122;BME280;70471;53.200;6.080;2023-06-26T11:36:56;101684.13;;;24.00;46.06
76122;BME280;70471;53.200;6.080;2023-06-26T11:41:51;101682.09;;;24.05;45.69
76122;BME280;70471;53.200;6.080;2023-06-26T11:46:44;101690.13;;;24.07;46.07
76122;BME280;70471;53.200;6.080;2023-06-26T11:51:39;101681.03;;;24.01;45.83
76122;BME280;70471;53.200;6.080;2023-06-26T11:56:36;101709.72;;;24.15;45.21
76122;BME280;70471;53.200;6.080;2023-06-26T12:01:32;101731.38;;;24.19;44.05
76122;BME280;70471;53.200;6.080;2023-06-26T12:06:26;101720.66;;;24.12;43.57
76122;BME280;70471;53.200;6.080;2023-06-26T12:11:20;101733.84;;;24.20;43.44
76122;BME280;70471;53.200;6.080;2023-06-26T12:16:18;101730.25;;;24.20;43.41
76122;BME280;70471;53.200;6.080;2023-06-26T12:21:34;101737.69;;;24.24;42.87
76122;BME280;70471;53.200;6.080;2023-06-26T12:26:36;101740.84;;;24.18;43.02
76122;BME280;70471;53.200;6.080;2023-06-26T12:31:31;101728.97;;;23.98;42.19
76122;BME280;70471;53.200;6.080;2023-06-26T12:36:24;101769.50;;;24.04;42.69
76122;BME280;70471;53.200;6.080;2023-06-26T12:41:16;101766.72;;;24.04;42.80
76122;BME280;70471;53.200;6.080;2023-06-26T12:46:10;101767.84;;;24.03;42.65
76122;BME280;70471;53.200;6.080;2023-06-26T12:51:09;101760.22;;;23.95;42.93
76122;BME280;70471;53.200;6.080;2023-06-26T12:56:02;101779.81;;;24.04;42.45
76122;BME280;70471;53.200;6.080;2023-06-26T13:00:55;101782.06;;;24.02;42.68
76122;BME280;70471;53.200;6.080;2023-06-26T13:05:49;101767.84;;;24.03;42.50
76122;BME280;70471;53.200;6.080;2023-06-26T13:10:44;101761.25;;;23.99;42.44
76122;BME280;70471;53.200;6.080;2023-06-26T13:15:37;101761.25;;;23.99;42.61
76122;BME280;70471;53.200;6.080;2023-06-26T13:20:29;101771.78;;;24.02;42.12
76122;BME280;70471;53.200;6.080;2023-06-26T13:25:22;101776.75;;;24.05;41.50
76122;BME280;70471;53.200;6.080;2023-06-26T13:30:17;101786.81;;;24.01;41.66
76122;BME280;70471;53.200;6.080;2023-06-26T13:35:10;101782.06;;;24.02;40.99
76122;BME280;70471;53.200;6.080;2023-06-26T13:40:03;101787.03;;;24.05;41.05
76122;BME280;70471;53.200;6.080;2023-06-26T13:44:57;101776.91;;;23.95;41.07
76122;BME280;70471;53.200;6.080;2023-06-26T13:49:51;101792.38;;;24.01;40.84
76122;BME280;70471;53.200;6.080;2023-06-26T13:54:43;101805.19;;;24.02;40.29
76122;BME280;70471;53.200;6.080;2023-06-26T13:59:37;101813.31;;;23.79;39.97
76122;BME280;70471;53.200;6.080;2023-06-26T14:04:31;101816.13;;;23.60;40.83
76122;BME280;70471;53.200;6.080;2023-06-26T14:09:25;101744.97;;;23.02;40.15
76122;BME280;70471;53.200;6.080;2023-06-26T14:14:18;101812.97;;;23.10;41.17
76122;BME280;70471;53.200;6.080;2023-06-26T14:19:12;101819.63;;;22.90;42.38
76122;BME280;70471;53.200;6.080;2023-06-26T14:24:05;101824.84;;;22.73;42.30
76122;BME280;70471;53.200;6.080;2023-06-26T14:29:02;101816.34;;;22.64;42.23
76122;BME280;70471;53.200;6.080;2023-06-26T14:33:55;101819.41;;;22.62;42.91
76122;BME280;70471;53.200;6.080;2023-06-26T14:38:50;101805.63;;;22.52;43.31
76122;BME280;70471;53.200;6.080;2023-06-26T14:43:43;101830.53;;;22.62;42.35
76122;BME280;70471;53.200;6.080;2023-06-26T14:48:38;101836.78;;;22.49;41.71
76122;BME280;70471;53.200;6.080;2023-06-26T14:53:32;101845.28;;;22.28;41.24
76122;BME280;70471;53.200;6.080;2023-06-26T14:58:24;101830.47;;;22.09;40.75
76122;BME280;70471;53.200;6.080;2023-06-26T15:03:17;101839.38;;;22.06;40.73
76122;BME280;70471;53.200;6.080;2023-06-26T15:08:12;101850.38;;;22.16;41.49
76122;BME280;70471;53.200;6.080;2023-06-26T15:13:05;101833.78;;;22.11;40.43
76122;BME280;70471;53.200;6.080;2023-06-26T15:17:58;101847.00;;;22.24;40.91
76122;BME280;70471;53.200;6.080;2023-06-26T15:22:51;101829.69;;;22.32;40.23
76122;BME280;70471;53.200;6.080;2023-06-26T15:27:46;101841.56;;;22.38;40.35
76122;BME280;70471;53.200;6.080;2023-06-26T15:32:38;101852.50;;;22.29;40.28
76122;BME280;70471;53.200;6.080;2023-06-26T15:37:31;101839.63;;;22.39;41.39
76122;BME280;70471;53.200;6.080;2023-06-26T15:42:26;101858.31;;;22.62;41.56
76122;BME280;70471;53.200;6.080;2023-06-26T15:47:21;101834.28;;;22.71;41.92
76122;BME280;70471;53.200;6.080;2023-06-26T15:52:14;101842.94;;;22.94;42.14
76122;BME280;70471;53.200;6.080;2023-06-26T15:57:06;101850.81;;;23.06;42.99
76122;BME280;70471;53.200;6.080;2023-06-26T16:01:59;101845.41;;;23.20;42.64
76122;BME280;70471;53.200;6.080;2023-06-26T16:06:54;101863.97;;;23.43;42.58
76122;BME280;70471;53.200;6.080;2023-06-26T16:11:47;101848.31;;;23.48;42.51
76122;BME280;70471;53.200;6.080;2023-06-26T16:16:40;101854.56;;;23.58;42.51
76122;BME280;70471;53.200;6.080;2023-06-26T16:21:33;101868.47;;;23.77;42.57
76122;BME280;70471;53.200;6.080;2023-06-26T16:26:27;101872.16;;;23.92;42.39
76122;BME280;70471;53.200;6.080;2023-06-26T16:31:20;101863.34;;;24.04;42.11
76122;BME280;70471;53.200;6.080;2023-06-26T16:36:13;101869.88;;;24.13;42.38
76122;BME280;70471;53.200;6.080;2023-06-26T16:41:05;101871.34;;;24.24;42.18
76122;BME280;70471;53.200;6.080;2023-06-26T16:45:59;101867.53;;;24.34;42.01
76122;BME280;70471;53.200;6.080;2023-06-26T16:50:52;101869.63;;;24.42;41.04
76122;BME280;70471;53.200;6.080;2023-06-26T16:55:45;101861.94;;;24.53;40.18
76122;BME280;70471;53.200;6.080;2023-06-26T17:00:38;101861.53;;;24.60;39.21
76122;BME280;70471;53.200;6.080;2023-06-26T17:05:33;101868.94;;;24.64;38.95
76122;BME280;70471;53.200;6.080;2023-06-26T17:10:25;101838.28;;;24.50;38.66
76122;BME280;70471;53.200;6.080;2023-06-26T17:15:18;101862.97;;;24.71;38.26
76122;BME280;70471;53.200;6.080;2023-06-26T17:20:11;101850.25;;;24.65;37.76
76122;BME280;70471;53.200;6.080;2023-06-26T17:25:07;101871.75;;;24.78;37.27
76122;BME280;70471;53.200;6.080;2023-06-26T17:30:02;101869.47;;;24.80;37.28
76122;BME280;70471;53.200;6.080;2023-06-26T17:34:55;101877.53;;;24.82;37.18
76122;BME280;70471;53.200;6.080;2023-06-26T17:39:49;101884.53;;;24.79;36.71
76122;BME280;70471;53.200;6.080;2023-06-26T17:44:43;101877.94;;;24.75;37.02
76122;BME280;70471;53.200;6.080;2023-06-26T17:49:36;101891.16;;;24.83;36.44
76122;BME280;70471;53.200;6.080;2023-06-26T17:54:29;101886.63;;;24.87;36.33
76122;BME280;70471;53.200;6.080;2023-06-26T17:59:22;101879.19;;;24.83;36.68
76122;BME280;70471;53.200;6.080;2023-06-26T18:04:17;101867.81;;;24.79;36.23
76122;BME280;70471;53.200;6.080;2023-06-26T18:09:09;101898.69;;;24.97;35.50
76122;BME280;70471;53.200;6.080;2023-06-26T18:14:02;101908.72;;;24.98;35.13
76122;BME280;70471;53.200;6.080;2023-06-26T18:18:54;101894.88;;;24.93;34.47
76122;BME280;70471;53.200;6.080;2023-06-26T18:23:49;101898.38;;;24.98;33.73
76122;BME280;70471;53.200;6.080;2023-06-26T18:28:41;101908.72;;;24.98;33.54
76122;BME280;70471;53.200;6.080;2023-06-26T18:33:34;101912.63;;;24.97;33.37
76122;BME280;70471;53.200;6.080;2023-06-26T18:38:27;101898.41;;;24.84;33.17
76122;BME280;70471;53.200;6.080;2023-06-26T18:43:21;101902.81;;;24.85;32.52
76122;BME280;70471;53.200;6.080;2023-06-26T18:48:16;101915.63;;;24.86;32.25
76122;BME280;70471;53.200;6.080;2023-06-26T18:53:08;101907.44;;;24.76;32.31
76122;BME280;70471;53.200;6.080;2023-06-26T18:58:02;101916.75;;;24.85;32.23
76122;BME280;70471;53.200;6.080;2023-06-26T19:02:56;101867.91;;;24.60;32.28
76122;BME280;70471;53.200;6.080;2023-06-26T19:07:49;101926.78;;;24.86;32.03
76122;BME280;70471;53.200;6.080;2023-06-26T19:12:42;101920.78;;;24.79;31.88
76122;BME280;70471;53.200;6.080;2023-06-26T19:17:37;101922.09;;;24.68;31.72
76122;BME280;70471;53.200;6.080;2023-06-26T19:22:31;101934.72;;;24.65;31.89
76122;BME280;70471;53.200;6.080;2023-06-26T19:27:24;101935.94;;;24.59;31.68
76122;BME280;70471;53.200;6.080;2023-06-26T19:32:17;101925.72;;;24.55;31.60
76122;BME280;70471;53.200;6.080;2023-06-26T19:37:09;101940.34;;;24.46;31.17
76122;BME280;70471;53.200;6.080;2023-06-26T19:42:04;101942.66;;;24.39;31.18
76122;BME280;70471;53.200;6.080;2023-06-26T19:46:57;101948.63;;;24.32;31.13
76122;BME280;70471;53.200;6.080;2023-06-26T19:51:50;101935.75;;;24.18;31.56
76122;BME280;70471;53.200;6.080;2023-06-26T19:56:42;101935.34;;;24.10;32.23
76122;BME280;70471;53.200;6.080;2023-06-26T20:01:37;101950.84;;;24.17;31.89
76122;BME280;70471;53.200;6.080;2023-06-26T20:06:30;101952.03;;;24.10;32.16
76122;BME280;70471;53.200;6.080;2023-06-26T20:11:27;101956.84;;;24.05;32.16
76122;BME280;70471;53.200;6.080;2023-06-26T20:16:20;101956.94;;;24.00;32.07
76122;BME280;70471;53.200;6.080;2023-06-26T20:21:14;101953.44;;;23.94;31.99
76122;BME280;70471;53.200;6.080;2023-06-26T20:26:07;101953.47;;;23.89;32.10
76122;BME280;70471;53.200;6.080;2023-06-26T20:31:01;101954.94;;;23.86;32.10
76122;BME280;70471;53.200;6.080;2023-06-26T20:35:54;101955.88;;;23.76;32.27
76122;BME280;70471;53.200;6.080;2023-06-26T20:40:48;101959.25;;;23.73;31.83
76122;BME280;70471;53.200;6.080;2023-06-26T20:45:41;101961.56;;;23.66;31.98
76122;BME280;70471;53.200;6.080;2023-06-26T20:50:34;101953.59;;;23.59;32.87
76122;BME280;70471;53.200;6.080;2023-06-26T20:55:26;101967.81;;;23.58;33.56
76122;BME280;70471;53.200;6.080;2023-06-26T21:00:21;101972.84;;;23.56;34.34
76122;BME280;70471;53.200;6.080;2023-06-26T21:05:14;101973.16;;;23.54;34.71
76122;BME280;70471;53.200;6.080;2023-06-26T21:10:07;101967.34;;;23.51;35.45
76122;BME280;70471;53.200;6.080;2023-06-26T21:14:59;101969.59;;;23.49;35.88
76122;BME280;70471;53.200;6.080;2023-06-26T21:19:53;101960.19;;;23.44;36.28
76122;BME280;70471;53.200;6.080;2023-06-26T21:24:47;101964.63;;;23.46;36.63
76122;BME280;70471;53.200;6.080;2023-06-26T21:29:41;101967.41;;;23.46;36.85
76122;BME280;70471;53.200;6.080;2023-06-26T21:34:33;101959.66;;;23.42;37.02
76122;BME280;70471;53.200;6.080;2023-06-26T21:39:28;101963.56;;;23.41;37.31
76122;BME280;70471;53.200;6.080;2023-06-26T21:44:21;101956.94;;;23.37;37.43
76122;BME280;70471;53.200;6.080;2023-06-26T21:49:13;101966.97;;;23.38;37.86
76122;BME280;70471;53.200;6.080;2023-06-26T21:54:05;101946.78;;;23.28;38.19
76122;BME280;70471;53.200;6.080;2023-06-26T21:58:59;101967.00;;;23.33;37.97
76122;BME280;70471;53.200;6.080;2023-06-26T22:03:52;101956.47;;;23.30;37.82
76122;BME280;70471;53.200;6.080;2023-06-26T22:08:45;101942.19;;;23.18;38.30
76122;BME280;70471;53.200;6.080;2023-06-26T22:13:37;101957.66;;;23.24;38.26
76122;BME280;70471;53.200;6.080;2023-06-26T22:18:31;101960.72;;;23.22;38.44
76122;BME280;70471;53.200;6.080;2023-06-26T22:23:24;101950.22;;;23.19;38.87
76122;BME280;70471;53.200;6.080;2023-06-26T22:28:17;101951.34;;;23.18;38.69
76122;BME280;70471;53.200;6.080;2023-06-26T22:33:09;101949.41;;;23.14;38.88
76122;BME280;70471;53.200;6.080;2023-06-26T22:38:03;101942.25;;;23.07;38.93
76122;BME280;70471;53.200;6.080;2023-06-26T22:42:55;101942.78;;;23.10;38.88
76122;BME280;70471;53.200;6.080;2023-06-26T22:47:48;101931.72;;;23.04;38.91
76122;BME280;70471;53.200;6.080;2023-06-26T22:52:40;101913.00;;;22.91;39.17
76122;BME280;70471;53.200;6.080;2023-06-26T22:57:34;101933.97;;;23.02;39.40
76122;BME280;70471;53.200;6.080;2023-06-26T23:02:26;101928.19;;;22.99;39.29
76122;BME280;70471;53.200;6.080;2023-06-26T23:07:19;101928.78;;;22.96;39.38
76122;BME280;70471;53.200;6.080;2023-06-26T23:12:11;101927.63;;;22.97;39.66
76122;BME280;70471;53.200;6.080;2023-06-26T23:17:06;101924.63;;;22.93;39.81
76122;BME280;70471;53.200;6.080;2023-06-26T23:21:59;101922.44;;;22.90;39.68
76122;BME280;70471;53.200;6.080;2023-06-26T23:26:52;101926.03;;;22.90;40.01
76122;BME280;70471;53.200;6.080;2023-06-26T23:31:46;101933.84;;;22.88;39.68
76122;BME280;70471;53.200;6.080;2023-06-26T23:36:40;101923.09;;;22.82;40.01
76122;BME280;70471;53.200;6.080;2023-06-26T23:41:33;101930.84;;;22.85;39.82
76122;BME280;70471;53.200;6.080;2023-06-26T23:46:25;101936.41;;;22.85;39.96
76122;BME280;70471;53.200;6.080;2023-06-26T23:51:18;101928.72;;;22.77;40.19
76122;BME280;70471;53.200;6.080;2023-06-26T23:56:12;101923.16;;;22.77;39.88
